Phillips Army Air Field Aberdeen Proving Grounds(Aberdeen) US
ICAO: KAPG
IATA: APG
Category: Medium
Scheduled Services: No

Elevation: 57 ft
TransAlt. 18000 ft.

Airport Communications:
POTOMAC APP/DEP:126.75
ATIS:108.4
GND:121.9
TWR:126.15

KAPG Zoom In..

Runways:

(A) RW 04 length 7997 ft width 200 ft
---- / hdg 38

(B) RW 08 length 4849 ft width 149 ft
---- / hdg 82

(C) RW 17 length 5004 ft width 149 ft
---- / hdg 171

(D) RW 22 length 7997 ft width 200 ft
---- / hdg 218

(E) RW 26 length 4849 ft width 149 ft
---- / hdg 262

(F) RW 35 length 5004 ft width 149 ft
---- / hdg 351

Location; KAPG
Day. 22 / Time. 23.58 Zulu
* Altimeter: 30.05
* Temperature: 11° c. 51.8°f.
* Wind from: 000° Speed 00 kn.
Dewpoint: 07° c.
Visibility: 10 Statute Miles.
Clouds: Scattered 7000 ft.

KAPG 222358Z 00000KT 10SM SCT070 11/07 A3005 RMK AO2A SLPNO 57003 $


Wind - Calm.

YouTube Music Video
 
jpsmedia.com for Web Design  worldairports.se 2018   terms of use